createdAt,value
2022-08-02T00:00:40.710Z,8.00
2022-08-02T00:03:08.079Z,4.00
2022-08-02T00:05:35.543Z,6.80
2022-08-02T00:08:03.014Z,6.77
2022-08-02T00:10:30.718Z,5.83
2022-08-02T00:12:58.523Z,7.30
2022-08-02T00:15:26.458Z,4.43
2022-08-02T00:17:55.188Z,4.00
2022-08-02T00:20:22.640Z,4.20
2022-08-02T00:22:50.116Z,4.57
2022-08-02T00:25:17.574Z,5.93
2022-08-02T00:27:44.924Z,4.87
2022-08-02T00:30:13.165Z,4.30
2022-08-02T00:32:40.635Z,3.13
2022-08-02T00:35:10.182Z,3.50
2022-08-02T00:37:40.390Z,4.80
2022-08-02T00:40:10.052Z,4.40
2022-08-02T00:42:37.654Z,5.00
2022-08-02T00:45:06.339Z,5.10
2022-08-02T00:47:33.836Z,4.13
2022-08-02T00:50:01.281Z,5.93
2022-08-02T00:52:30.035Z,7.83
2022-08-02T00:54:57.495Z,4.50
2022-08-02T00:57:24.839Z,4.23
2022-08-02T00:59:52.351Z,5.50
2022-08-02T01:02:19.897Z,4.83
2022-08-02T01:04:47.266Z,7.90
2022-08-02T01:07:14.741Z,6.07
2022-08-02T01:09:45.358Z,8.30
2022-08-02T01:12:14.203Z,5.03
2022-08-02T01:14:46.170Z,5.17
2022-08-02T01:17:22.558Z,5.30
2022-08-02T01:20:03.569Z,4.60
2022-08-02T01:23:01.555Z,6.67
2022-08-02T01:26:08.773Z,4.83
2022-08-02T01:28:45.122Z,5.97
2022-08-02T01:31:24.318Z,3.70
2022-08-02T01:33:59.844Z,5.47
2022-08-02T01:36:34.835Z,8.17
2022-08-02T01:39:05.429Z,5.67
2022-08-02T01:41:35.950Z,8.70
2022-08-02T01:44:07.839Z,6.17
2022-08-02T01:46:38.592Z,6.30
2022-08-02T01:49:13.583Z,8.87
2022-08-02T01:52:02.200Z,7.20
2022-08-02T01:54:35.179Z,4.73
2022-08-02T01:57:10.256Z,6.10
2022-08-02T01:59:44.265Z,6.03
2022-08-02T02:02:15.454Z,4.87
2022-08-02T02:04:46.929Z,7.17
2022-08-02T02:07:17.108Z,6.77
2022-08-02T02:09:50.274Z,9.23
2022-08-02T02:12:21.345Z,6.43
2022-08-02T02:14:52.136Z,6.40
2022-08-02T02:18:10.761Z,6.67
2022-08-02T02:20:18.537Z,5.00
2022-08-02T02:22:48.430Z,10.07
2022-08-02T02:25:20.294Z,6.87
2022-08-02T02:28:04.794Z,4.60
2022-08-02T02:30:38.568Z,10.97
2022-08-02T02:33:08.382Z,6.90
2022-08-02T02:35:38.422Z,8.57
2022-08-02T02:38:11.222Z,9.77
2022-08-02T02:40:42.062Z,7.37
2022-08-02T02:43:12.694Z,6.50
2022-08-02T02:45:43.609Z,7.80
2022-08-02T02:48:13.752Z,5.30
2022-08-02T02:50:43.916Z,5.07
2022-08-02T02:53:13.864Z,5.03
2022-08-02T02:56:02.420Z,8.33
2022-08-02T02:58:32.138Z,6.73
2022-08-02T03:01:20.013Z,7.77
2022-08-02T03:03:49.470Z,6.40
2022-08-02T03:06:17.036Z,4.80
2022-08-02T03:08:44.540Z,8.10
2022-08-02T03:11:14.042Z,4.83
2022-08-02T03:13:41.725Z,7.87
2022-08-02T03:16:12.233Z,6.20
2022-08-02T03:18:42.466Z,8.37
2022-08-02T03:21:13.200Z,4.93
2022-08-02T03:23:43.328Z,4.77
2022-08-02T03:26:11.159Z,5.73
2022-08-02T03:28:38.658Z,6.53
2022-08-02T03:31:06.225Z,6.77
2022-08-02T03:33:36.310Z,7.10
2022-08-02T03:36:10.954Z,5.87
2022-08-02T03:38:39.376Z,5.80
2022-08-02T03:41:08.886Z,5.97
2022-08-02T03:43:39.070Z,9.90
2022-08-02T03:46:09.670Z,9.47
2022-08-02T03:48:39.697Z,6.60
2022-08-02T03:51:08.377Z,4.93
2022-08-02T03:53:37.261Z,6.70
2022-08-02T03:56:07.108Z,6.27
2022-08-02T03:58:34.904Z,4.60
2022-08-02T04:01:02.816Z,5.70
2022-08-02T04:03:30.530Z,6.63
2022-08-02T04:06:03.908Z,4.53
2022-08-02T04:08:35.513Z,5.10
2022-08-02T04:11:23.758Z,6.63
2022-08-02T04:13:51.911Z,5.80
2022-08-02T04:16:23.334Z,8.37
2022-08-02T04:18:56.363Z,5.60
2022-08-02T04:21:50.076Z,6.93
2022-08-02T04:24:24.599Z,6.87
2022-08-02T04:26:57.914Z,6.27
2022-08-02T04:29:36.694Z,7.03
2022-08-02T04:32:05.558Z,7.10
2022-08-02T04:34:33.129Z,6.23
2022-08-02T04:37:02.449Z,5.87
2022-08-02T04:39:29.822Z,4.63
2022-08-02T04:41:58.023Z,8.07
2022-08-02T04:44:25.762Z,8.57
2022-08-02T04:46:54.706Z,9.90
2022-08-02T04:49:22.232Z,7.50
2022-08-02T04:51:49.754Z,6.33
2022-08-02T04:54:18.546Z,5.23
2022-08-02T04:56:45.925Z,4.27
2022-08-02T04:59:13.401Z,7.00
2022-08-02T05:01:42.411Z,6.90
2022-08-02T05:04:10.222Z,5.27
2022-08-02T05:06:37.742Z,6.63
2022-08-02T05:09:05.119Z,7.17
2022-08-02T05:11:36.776Z,6.40
2022-08-02T05:14:05.860Z,6.47
2022-08-02T05:16:33.606Z,6.20
2022-08-02T05:19:01.339Z,6.13
2022-08-02T05:21:30.059Z,6.90
2022-08-02T05:23:57.399Z,7.03
2022-08-02T05:26:24.788Z,6.63
2022-08-02T05:28:53.504Z,9.40
2022-08-02T05:31:20.897Z,9.50
2022-08-02T05:33:48.351Z,7.13
2022-08-02T05:36:16.575Z,8.60
2022-08-02T05:38:49.961Z,10.80
2022-08-02T05:41:19.073Z,8.37
2022-08-02T05:43:46.981Z,8.73
2022-08-02T05:46:15.839Z,13.77
2022-08-02T05:48:44.994Z,7.63
2022-08-02T05:51:21.148Z,7.03
2022-08-02T05:53:55.852Z,8.63
2022-08-02T05:56:34.487Z,9.23
2022-08-02T05:59:07.141Z,6.47
2022-08-02T06:01:40.675Z,8.60
2022-08-02T06:04:10.510Z,6.50
2022-08-02T06:06:44.660Z,6.73
2022-08-02T06:09:26.930Z,7.87
2022-08-02T06:12:02.661Z,7.27
2022-08-02T06:14:33.087Z,8.27
2022-08-02T06:17:05.231Z,5.80
2022-08-02T06:19:46.863Z,11.10
2022-08-02T06:22:35.790Z,9.10
2022-08-02T06:25:06.436Z,7.57
2022-08-02T06:27:40.816Z,6.03
2022-08-02T06:30:10.652Z,6.53
2022-08-02T06:32:39.821Z,6.43
2022-08-02T06:35:08.951Z,7.80
2022-08-02T06:37:41.958Z,5.93
2022-08-02T06:40:25.241Z,10.37
2022-08-02T06:43:10.769Z,5.63
2022-08-02T06:45:38.813Z,6.23
2022-08-02T06:48:09.799Z,10.70
2022-08-02T06:50:42.206Z,6.60
2022-08-02T06:53:11.372Z,7.90
2022-08-02T06:55:43.359Z,5.53
2022-08-02T06:58:12.476Z,7.63
2022-08-02T07:00:40.434Z,5.07
2022-08-02T07:03:09.591Z,5.10
2022-08-02T07:05:37.160Z,5.77
2022-08-02T07:08:05.295Z,5.47
2022-08-02T07:10:32.776Z,9.57
2022-08-02T07:13:00.301Z,5.47
2022-08-02T07:15:27.736Z,7.07
2022-08-02T07:17:55.110Z,6.67
2022-08-02T07:20:23.927Z,6.20
2022-08-02T07:22:51.548Z,11.10
2022-08-02T07:25:18.949Z,4.53
2022-08-02T07:27:46.334Z,11.63
2022-08-02T07:30:17.166Z,5.27
2022-08-02T07:32:44.500Z,6.50
2022-08-02T07:35:13.362Z,6.30
2022-08-02T07:37:55.435Z,4.47
2022-08-02T07:40:29.680Z,7.40
2022-08-02T07:43:03.478Z,6.40
2022-08-02T07:45:33.139Z,9.00
2022-08-02T07:48:03.515Z,5.83
2022-08-02T07:50:30.944Z,7.90
2022-08-02T07:53:01.044Z,5.03
2022-08-02T07:55:38.996Z,5.57
2022-08-02T07:58:11.215Z,6.57
2022-08-02T08:00:42.749Z,6.43
2022-08-02T08:03:10.237Z,6.73
2022-08-02T08:05:37.751Z,6.07
2022-08-02T08:08:06.779Z,6.00
2022-08-02T08:10:34.290Z,4.50
2022-08-02T08:13:01.818Z,3.87
2022-08-02T08:15:29.709Z,5.50
2022-08-02T08:17:57.399Z,5.10
2022-08-02T08:20:25.072Z,7.80
2022-08-02T08:22:53.198Z,5.43
2022-08-02T08:25:22.473Z,4.70
2022-08-02T08:27:51.460Z,8.17
2022-08-02T08:30:20.974Z,4.80
2022-08-02T08:32:49.096Z,4.03
2022-08-02T08:35:16.585Z,6.73
2022-08-02T08:37:44.381Z,4.30
2022-08-02T08:40:13.680Z,4.20
2022-08-02T08:42:48.605Z,5.60
2022-08-02T08:45:18.260Z,4.77
2022-08-02T08:47:56.485Z,5.13
2022-08-02T08:50:26.563Z,5.27
2022-08-02T08:53:04.880Z,6.67
2022-08-02T08:55:34.840Z,4.97
2022-08-02T08:58:05.289Z,5.85
2022-08-02T09:00:35.935Z,4.83
2022-08-02T09:03:08.524Z,7.00
2022-08-02T09:05:37.152Z,3.95
2022-08-02T09:08:05.947Z,8.90
2022-08-02T09:10:41.549Z,5.10
2022-08-02T09:13:37.765Z,2.55
2022-08-02T09:16:11.563Z,4.55
2022-08-02T09:18:47.165Z,3.38
2022-08-02T09:21:17.360Z,4.90
2022-08-02T09:23:47.688Z,5.32
2022-08-02T09:26:19.152Z,4.60
2022-08-02T09:28:51.515Z,3.72
2022-08-02T09:31:22.619Z,3.50
2022-08-02T09:33:54.608Z,3.45
2022-08-02T09:36:24.053Z,2.92
2022-08-02T09:38:57.701Z,6.55
2022-08-02T09:41:27.220Z,6.15
2022-08-02T09:44:03.313Z,7.63
2022-08-02T09:50:58.459Z,3.60
2022-08-02T09:53:25.952Z,4.90
2022-08-02T09:55:56.546Z,5.93
2022-08-02T09:58:24.022Z,2.30
2022-08-02T10:01:01.671Z,3.13
2022-08-02T10:03:31.957Z,4.10
2022-08-02T10:06:03.340Z,3.75
2022-08-02T10:08:33.125Z,3.80
2022-08-02T10:11:01.879Z,2.75
2022-08-02T10:13:34.695Z,3.90
2022-08-02T10:16:07.235Z,3.45
2022-08-02T10:18:39.270Z,3.20
2022-08-02T10:21:13.987Z,4.50
2022-08-02T10:23:45.640Z,3.47
2022-08-02T10:26:18.559Z,2.92
2022-08-02T10:28:49.992Z,5.28
2022-08-02T10:31:25.448Z,2.83
2022-08-02T10:33:55.914Z,2.28
2022-08-02T10:36:27.148Z,2.30
2022-08-02T10:38:58.617Z,3.10
2022-08-02T10:41:45.827Z,2.50
2022-08-02T10:44:26.678Z,2.15
2022-08-02T10:47:25.876Z,2.45
2022-08-02T10:49:56.191Z,4.13
2022-08-02T10:52:25.092Z,4.70
2022-08-02T10:54:57.744Z,6.47
2022-08-02T10:57:27.638Z,2.60
2022-08-02T10:59:58.432Z,2.28
2022-08-02T11:02:40.162Z,3.38
2022-08-02T11:05:15.993Z,3.75
2022-08-02T11:07:47.889Z,2.38
2022-08-02T11:10:38.779Z,2.80
2022-08-02T11:13:12.033Z,2.13
2022-08-02T11:15:53.494Z,2.03
2022-08-02T11:18:44.192Z,1.90
2022-08-02T11:21:23.410Z,2.33
2022-08-02T11:23:51.757Z,2.07
2022-08-02T11:26:44.639Z,2.73
2022-08-02T11:29:15.808Z,3.47
2022-08-02T11:31:47.317Z,2.30
2022-08-02T11:34:36.433Z,2.67
2022-08-02T11:37:05.652Z,4.43
2022-08-02T11:39:33.097Z,4.33
2022-08-02T11:42:01.576Z,3.27
2022-08-02T11:44:39.151Z,2.00
2022-08-02T11:47:08.334Z,5.87
2022-08-02T11:49:38.517Z,2.30
2022-08-02T11:52:10.908Z,2.23
2022-08-02T11:54:41.319Z,2.10
2022-08-02T11:57:19.338Z,3.93
2022-08-02T11:59:50.560Z,3.50
2022-08-02T12:02:19.880Z,2.90
2022-08-02T12:04:58.467Z,2.67
2022-08-02T12:07:35.463Z,3.53
2022-08-02T12:10:06.877Z,3.13
2022-08-02T12:12:34.744Z,2.60
2022-08-02T12:15:02.203Z,3.27
2022-08-02T12:17:48.352Z,2.60
2022-08-02T12:20:17.413Z,2.27
2022-08-02T12:22:45.031Z,1.90
2022-08-02T12:25:33.432Z,3.67
2022-08-02T12:28:20.438Z,4.53
2022-08-02T12:30:53.644Z,2.20
2022-08-02T12:33:23.015Z,2.07
2022-08-02T12:35:52.272Z,2.90
2022-08-02T12:38:20.367Z,2.57
2022-08-02T12:40:48.573Z,5.30
2022-08-02T12:43:22.982Z,3.10
2022-08-02T12:45:53.417Z,3.57
2022-08-02T12:48:38.430Z,5.07
2022-08-02T12:51:25.154Z,4.47
2022-08-02T12:54:18.071Z,4.50
2022-08-02T12:56:46.006Z,5.47
2022-08-02T12:59:14.187Z,3.40
2022-08-02T13:01:42.586Z,2.87
2022-08-02T13:04:14.001Z,5.27
2022-08-02T13:06:45.749Z,3.13
2022-08-02T13:09:16.863Z,4.17
2022-08-02T13:11:45.044Z,3.03
2022-08-02T13:14:13.266Z,2.50
2022-08-02T13:16:42.687Z,6.10
2022-08-02T13:19:10.582Z,3.30
2022-08-02T13:21:41.606Z,6.23
2022-08-02T13:24:39.753Z,4.37
2022-08-02T13:27:09.600Z,3.77
2022-08-02T13:29:37.956Z,3.43
2022-08-02T13:32:06.068Z,2.40
2022-08-02T13:34:33.536Z,2.63
2022-08-02T13:37:02.151Z,4.70
2022-08-02T13:39:31.003Z,5.97
2022-08-02T13:41:58.332Z,2.93
2022-08-02T13:44:25.636Z,3.07
2022-08-02T13:46:53.003Z,3.30
2022-08-02T13:49:21.689Z,2.97
2022-08-02T13:52:06.367Z,2.50
2022-08-02T13:54:35.244Z,2.77
2022-08-02T13:57:02.951Z,2.90
2022-08-02T13:59:57.166Z,4.40
2022-08-02T14:02:18.693Z,3.20
2022-08-02T14:04:46.215Z,4.33
2022-08-02T14:07:13.573Z,2.50
2022-08-02T14:09:43.674Z,3.10
2022-08-02T14:12:12.644Z,2.77
2022-08-02T14:14:40.213Z,4.07
2022-08-02T14:17:07.622Z,2.50
2022-08-02T14:19:34.967Z,3.70
2022-08-02T14:22:11.020Z,2.60
2022-08-02T14:24:41.757Z,2.53
2022-08-02T14:27:09.497Z,2.50
2022-08-02T14:29:37.048Z,2.23
2022-08-02T14:32:05.103Z,4.10
2022-08-02T14:34:32.558Z,4.00
2022-08-02T14:36:59.920Z,2.67
2022-08-02T14:39:27.360Z,2.77
2022-08-02T14:42:13.471Z,4.10
2022-08-02T14:44:41.030Z,3.57
2022-08-02T14:47:08.725Z,5.40
2022-08-02T14:49:41.874Z,3.53
2022-08-02T14:52:13.194Z,8.10
2022-08-02T14:54:43.105Z,2.30
2022-08-02T14:57:11.898Z,2.93
2022-08-02T14:59:42.164Z,2.47
2022-08-02T15:02:13.182Z,2.90
2022-08-02T15:04:43.010Z,3.33
2022-08-02T15:07:12.747Z,2.27
2022-08-02T15:09:40.589Z,2.47
2022-08-02T15:12:11.571Z,2.77
2022-08-02T15:14:40.442Z,7.23
2022-08-02T15:17:09.372Z,2.40
2022-08-02T15:19:56.446Z,2.60
2022-08-02T15:22:25.119Z,6.43
2022-08-02T15:24:55.835Z,4.00
2022-08-02T15:27:25.068Z,3.73
2022-08-02T15:29:52.782Z,4.57
2022-08-02T15:32:20.130Z,2.73
2022-08-02T15:34:48.178Z,3.57
2022-08-02T15:37:15.593Z,5.23
2022-08-02T15:39:43.114Z,3.37
2022-08-02T15:42:11.262Z,2.93
2022-08-02T15:44:40.235Z,3.10
2022-08-02T15:47:08.017Z,6.07
2022-08-02T15:49:39.318Z,4.33
2022-08-02T15:52:08.587Z,5.13
2022-08-02T15:54:36.114Z,5.17
2022-08-02T15:57:03.548Z,3.57
2022-08-02T15:59:31.256Z,3.93
2022-08-02T16:02:00.626Z,4.60
2022-08-02T16:04:28.178Z,3.73
2022-08-02T16:06:55.651Z,4.90
2022-08-02T16:09:23.033Z,3.30
2022-08-02T16:11:50.654Z,4.10
2022-08-02T16:14:18.059Z,5.40
2022-08-02T16:16:46.209Z,3.70
2022-08-02T16:19:45.820Z,4.40
2022-08-02T16:22:03.119Z,5.03
2022-08-02T16:24:30.801Z,4.20
2022-08-02T16:26:58.262Z,3.30
2022-08-02T16:29:25.608Z,3.20
2022-08-02T16:31:52.937Z,3.40
2022-08-02T16:34:21.681Z,3.10
2022-08-02T16:36:49.051Z,3.30
2022-08-02T16:39:16.530Z,3.13
2022-08-02T16:41:51.037Z,3.30
2022-08-02T16:44:29.800Z,2.50
2022-08-02T16:47:00.891Z,2.63
2022-08-02T16:50:05.485Z,4.43
2022-08-02T16:52:19.342Z,3.20
2022-08-02T16:54:49.675Z,2.67
2022-08-02T16:57:19.783Z,2.57
2022-08-02T16:59:57.811Z,2.43
2022-08-02T17:02:26.033Z,2.30
2022-08-02T17:04:54.943Z,2.53
2022-08-02T17:08:07.565Z,3.37
2022-08-02T17:10:10.521Z,3.67
2022-08-02T17:12:39.220Z,3.40
2022-08-02T17:16:01.526Z,3.23
2022-08-02T17:17:56.026Z,2.37
2022-08-02T17:20:24.948Z,2.50
2022-08-02T17:22:52.533Z,2.67
2022-08-02T17:25:20.191Z,2.30
2022-08-02T17:27:47.695Z,3.17
2022-08-02T17:30:26.856Z,3.40
2022-08-02T17:32:57.455Z,3.10
2022-08-02T17:35:43.898Z,3.10
2022-08-02T17:38:17.789Z,2.43
2022-08-02T17:40:45.545Z,2.63
2022-08-02T17:43:14.695Z,2.80
2022-08-02T17:46:00.834Z,2.40
2022-08-02T17:48:50.142Z,3.37
2022-08-02T17:52:15.846Z,3.07
2022-08-02T17:54:12.864Z,3.50
2022-08-02T17:56:42.656Z,2.43
2022-08-02T17:59:12.907Z,2.53
2022-08-02T18:01:53.277Z,2.40
2022-08-02T18:04:27.726Z,2.80
2022-08-02T18:06:59.658Z,2.27
2022-08-02T18:09:32.300Z,2.53
2022-08-02T18:12:01.970Z,2.57
2022-08-02T18:14:30.374Z,2.20
2022-08-02T18:16:58.700Z,1.80
2022-08-02T18:19:33.119Z,2.67
2022-08-02T18:22:11.891Z,3.63
2022-08-02T18:24:40.636Z,3.63
2022-08-02T18:27:09.313Z,3.60
2022-08-02T18:29:38.564Z,2.43
2022-08-02T18:32:11.776Z,3.70
2022-08-02T18:34:39.729Z,2.30
2022-08-02T18:37:07.378Z,2.23
2022-08-02T18:39:38.562Z,2.97
2022-08-02T18:42:06.364Z,1.70
2022-08-02T18:44:33.694Z,2.10
2022-08-02T18:47:01.104Z,1.70
2022-08-02T18:49:46.817Z,2.07
2022-08-02T18:52:30.655Z,1.93
2022-08-02T18:55:00.420Z,1.70
2022-08-02T18:58:16.820Z,2.30
2022-08-02T19:00:17.024Z,5.10
2022-08-02T19:02:48.123Z,2.13
2022-08-02T19:05:16.253Z,2.50
2022-08-02T19:07:50.687Z,2.03
2022-08-02T19:10:23.236Z,2.23
2022-08-02T19:12:51.770Z,2.40
2022-08-02T19:15:19.582Z,2.13
2022-08-02T19:17:53.879Z,2.83
2022-08-02T19:20:24.090Z,2.93
2022-08-02T19:22:53.824Z,1.77
2022-08-02T19:28:10.521Z,2.00
2022-08-02T19:30:38.343Z,2.50
2022-08-02T19:33:09.373Z,2.23
2022-08-02T19:35:36.947Z,2.60
2022-08-02T19:38:24.275Z,3.30
2022-08-02T19:40:56.177Z,2.70
2022-08-02T19:44:26.683Z,3.33
2022-08-02T19:49:01.023Z,2.87
2022-08-02T19:51:54.637Z,3.13
2022-08-02T19:54:24.240Z,3.13
2022-08-02T19:57:16.994Z,2.20
2022-08-02T19:59:46.639Z,2.40
2022-08-02T20:02:15.977Z,3.83
2022-08-02T20:04:49.824Z,3.13
2022-08-02T20:07:48.209Z,3.13
2022-08-02T20:10:06.749Z,3.40
2022-08-02T20:12:41.161Z,2.70
2022-08-02T20:15:15.393Z,3.60
2022-08-02T20:17:47.185Z,3.27
2022-08-02T20:20:15.427Z,3.80
2022-08-02T20:23:01.549Z,3.37
2022-08-02T20:25:50.907Z,3.40
2022-08-02T20:28:23.290Z,5.03
2022-08-02T20:30:50.717Z,3.83
2022-08-02T20:33:21.790Z,3.80
2022-08-02T20:35:53.378Z,3.40
2022-08-02T20:38:25.065Z,4.27
2022-08-02T20:40:57.473Z,4.77
2022-08-02T20:43:31.104Z,3.73
2022-08-02T20:45:58.951Z,3.27
2022-08-02T20:48:30.054Z,3.10
2022-08-02T20:50:57.903Z,3.33
2022-08-02T20:53:29.769Z,3.73
2022-08-02T20:55:58.513Z,4.07
2022-08-02T20:58:28.081Z,3.47
2022-08-02T21:00:59.266Z,3.57
2022-08-02T21:06:16.998Z,4.77
2022-08-02T21:08:46.086Z,3.47
2022-08-02T21:11:14.006Z,2.70
2022-08-02T21:13:46.808Z,3.33
2022-08-02T21:16:30.465Z,3.07
2022-08-02T21:19:00.168Z,3.20
2022-08-02T21:21:28.228Z,3.13
2022-08-02T21:23:57.153Z,3.67
2022-08-02T21:26:28.024Z,4.07
2022-08-02T21:28:57.487Z,3.53
2022-08-02T21:31:29.862Z,7.60
2022-08-02T21:34:00.379Z,5.13
2022-08-02T21:36:30.793Z,5.73
2022-08-02T21:39:00.228Z,4.13
2022-08-02T21:41:39.720Z,5.70
2022-08-02T21:44:17.760Z,3.20
2022-08-02T21:46:46.702Z,3.27
2022-08-02T21:49:17.463Z,3.13
2022-08-02T21:51:49.297Z,4.30
2022-08-02T21:54:19.913Z,4.83
2022-08-02T21:56:50.209Z,3.00
2022-08-02T21:59:25.226Z,3.43
2022-08-02T22:01:56.797Z,3.77
2022-08-02T22:04:25.876Z,3.20
2022-08-02T22:06:54.902Z,3.53
2022-08-02T22:09:43.146Z,3.73
2022-08-02T22:12:16.687Z,4.90
2022-08-02T22:14:53.948Z,3.43
2022-08-02T22:17:51.270Z,4.53
2022-08-02T22:20:14.134Z,3.57
2022-08-02T22:22:42.919Z,3.23
2022-08-02T22:25:26.345Z,3.43
2022-08-02T22:28:38.113Z,2.87
2022-08-02T22:30:46.496Z,3.57
2022-08-02T22:33:38.739Z,3.03
2022-08-02T22:36:11.411Z,4.20
2022-08-02T22:38:39.414Z,2.90
2022-08-02T22:41:13.411Z,4.93
2022-08-02T22:43:40.890Z,3.50
2022-08-02T22:46:09.836Z,3.60
2022-08-02T22:48:43.794Z,3.37
2022-08-02T22:51:11.443Z,3.10
2022-08-02T22:53:41.714Z,5.20
2022-08-02T22:56:12.009Z,3.30
2022-08-02T22:58:53.029Z,2.50
2022-08-02T22:58:59.434Z,2.27
2022-08-02T22:59:06.150Z,4.20
2022-08-02T22:59:10.363Z,3.57
2022-08-02T23:01:28.372Z,3.30
2022-08-02T23:03:55.830Z,3.10
2022-08-02T23:06:23.171Z,4.07
2022-08-02T23:08:50.797Z,5.67
2022-08-02T23:11:18.187Z,4.37
2022-08-02T23:13:45.601Z,3.93
2022-08-02T23:16:37.396Z,6.30
2022-08-02T23:19:24.842Z,3.93
2022-08-02T23:22:02.376Z,5.80
2022-08-02T23:24:33.205Z,3.83
2022-08-02T23:27:01.158Z,4.40
2022-08-02T23:29:28.952Z,3.83
2022-08-02T23:31:56.311Z,4.50
2022-08-02T23:34:25.048Z,3.00
2022-08-02T23:36:52.459Z,3.70
2022-08-02T23:39:19.792Z,4.17
2022-08-02T23:41:49.295Z,2.97
2022-08-02T23:44:23.696Z,3.90
2022-08-02T23:46:52.161Z,5.13
2022-08-02T23:49:20.502Z,4.67
2022-08-02T23:51:50.857Z,5.47
2022-08-02T23:54:18.697Z,4.83
2022-08-02T23:56:46.570Z,3.20
2022-08-02T23:59:13.985Z,3.77
